Terminal Aerodrome Forecast
Issued by NWS Amarillo, TX

Home | Current Version | Previous Version | Text Only | Print | Product List | Glossary On
Versions: 1 2 3 4 5 6 7 8 9 10 11 12 13 14 15 16
000
FTUS44 KAMA 191700
TAFDHT
TAF
KDHT 191737Z 1918/2018 19012KT P6SM VCSH BKN020
     FM200000 19008KT P6SM SCT035 BKN100
     FM200500 20007KT 4SM BR SCT008 BKN025
     FM200900 20005KT 2SM BR BKN007
     FM201600 16008KT P6SM BKN025=

USA.gov is the U.S. government's official web portal to all federal, state and local government web resources and services.